sensor_id;sensor_type;location;lat;lon;timestamp;P1;durP1;ratioP1;P2;durP2;ratioP2
64653;SDS011;51065;48.884;12.598;2023-05-10T00:00:07;5.20;;;2.60;;
64653;SDS011;51065;48.884;12.598;2023-05-10T00:02:34;5.65;;;2.10;;
64653;SDS011;51065;48.884;12.598;2023-05-10T00:04:59;8.32;;;2.60;;
64653;SDS011;51065;48.884;12.598;2023-05-10T00:07:25;5.50;;;2.50;;
64653;SDS011;51065;48.884;12.598;2023-05-10T00:09:50;5.03;;;2.53;;
64653;SDS011;51065;48.884;12.598;2023-05-10T00:12:16;5.93;;;2.60;;
64653;SDS011;51065;48.884;12.598;2023-05-10T00:14:42;4.20;;;2.33;;
64653;SDS011;51065;48.884;12.598;2023-05-10T00:17:07;4.53;;;2.35;;
64653;SDS011;51065;48.884;12.598;2023-05-10T00:19:33;7.55;;;2.60;;
64653;SDS011;51065;48.884;12.598;2023-05-10T00:21:58;4.15;;;2.50;;
64653;SDS011;51065;48.884;12.598;2023-05-10T00:24:24;6.03;;;2.97;;
64653;SDS011;51065;48.884;12.598;2023-05-10T00:26:50;5.57;;;2.90;;
64653;SDS011;51065;48.884;12.598;2023-05-10T00:29:15;8.15;;;2.83;;
64653;SDS011;51065;48.884;12.598;2023-05-10T00:31:41;5.00;;;2.70;;
64653;SDS011;51065;48.884;12.598;2023-05-10T00:34:06;5.13;;;2.50;;
64653;SDS011;51065;48.884;12.598;2023-05-10T00:36:32;4.93;;;2.85;;
64653;SDS011;51065;48.884;12.598;2023-05-10T00:38:57;6.30;;;3.10;;
64653;SDS011;51065;48.884;12.598;2023-05-10T00:41:23;4.47;;;2.67;;
64653;SDS011;51065;48.884;12.598;2023-05-10T00:43:49;5.47;;;2.80;;
64653;SDS011;51065;48.884;12.598;2023-05-10T00:46:14;6.32;;;3.03;;
64653;SDS011;51065;48.884;12.598;2023-05-10T00:48:40;6.18;;;3.10;;
64653;SDS011;51065;48.884;12.598;2023-05-10T00:51:07;7.47;;;3.03;;
64653;SDS011;51065;48.884;12.598;2023-05-10T00:53:33;8.43;;;3.25;;
64653;SDS011;51065;48.884;12.598;2023-05-10T00:56:00;6.10;;;2.63;;
64653;SDS011;51065;48.884;12.598;2023-05-10T00:58:26;7.88;;;3.55;;
64653;SDS011;51065;48.884;12.598;2023-05-10T01:00:53;6.55;;;2.78;;
64653;SDS011;51065;48.884;12.598;2023-05-10T01:03:21;7.28;;;3.25;;
64653;SDS011;51065;48.884;12.598;2023-05-10T01:05:47;8.50;;;3.30;;
64653;SDS011;51065;48.884;12.598;2023-05-10T01:08:13;6.32;;;2.92;;
64653;SDS011;51065;48.884;12.598;2023-05-10T01:10:39;7.47;;;3.22;;
64653;SDS011;51065;48.884;12.598;2023-05-10T01:13:05;7.30;;;2.80;;
64653;SDS011;51065;48.884;12.598;2023-05-10T01:15:31;7.57;;;3.13;;
64653;SDS011;51065;48.884;12.598;2023-05-10T01:17:56;6.18;;;3.03;;
64653;SDS011;51065;48.884;12.598;2023-05-10T01:20:23;6.22;;;3.10;;
64653;SDS011;51065;48.884;12.598;2023-05-10T01:23:05;5.70;;;2.95;;
64653;SDS011;51065;48.884;12.598;2023-05-10T01:26:05;7.63;;;3.33;;
64653;SDS011;51065;48.884;12.598;2023-05-10T01:31:30;7.18;;;2.88;;
64653;SDS011;51065;48.884;12.598;2023-05-10T01:34:02;9.18;;;3.45;;
64653;SDS011;51065;48.884;12.598;2023-05-10T01:36:42;7.78;;;3.40;;
64653;SDS011;51065;48.884;12.598;2023-05-10T01:44:34;8.38;;;3.65;;
64653;SDS011;51065;48.884;12.598;2023-05-10T01:49:32;8.18;;;3.92;;
64653;SDS011;51065;48.884;12.598;2023-05-10T01:52:10;10.30;;;3.50;;
64653;SDS011;51065;48.884;12.598;2023-05-10T01:54:38;10.90;;;3.75;;
64653;SDS011;51065;48.884;12.598;2023-05-10T01:57:09;7.07;;;3.40;;
64653;SDS011;51065;48.884;12.598;2023-05-10T01:59:38;7.78;;;3.47;;
64653;SDS011;51065;48.884;12.598;2023-05-10T02:02:07;7.47;;;3.17;;
64653;SDS011;51065;48.884;12.598;2023-05-10T02:04:37;8.48;;;3.58;;
64653;SDS011;51065;48.884;12.598;2023-05-10T02:07:05;7.70;;;3.65;;
64653;SDS011;51065;48.884;12.598;2023-05-10T02:09:32;7.32;;;3.47;;
64653;SDS011;51065;48.884;12.598;2023-05-10T02:11:59;6.10;;;3.35;;
64653;SDS011;51065;48.884;12.598;2023-05-10T02:14:28;6.70;;;3.25;;
64653;SDS011;51065;48.884;12.598;2023-05-10T02:16:58;9.05;;;3.83;;
64653;SDS011;51065;48.884;12.598;2023-05-10T02:19:25;10.52;;;3.65;;
64653;SDS011;51065;48.884;12.598;2023-05-10T02:21:52;9.90;;;3.42;;
64653;SDS011;51065;48.884;12.598;2023-05-10T02:24:20;7.88;;;3.50;;
64653;SDS011;51065;48.884;12.598;2023-05-10T02:26:49;6.82;;;3.42;;
64653;SDS011;51065;48.884;12.598;2023-05-10T02:29:16;8.90;;;3.42;;
64653;SDS011;51065;48.884;12.598;2023-05-10T02:31:43;9.02;;;3.67;;
64653;SDS011;51065;48.884;12.598;2023-05-10T02:34:10;7.50;;;3.53;;
64653;SDS011;51065;48.884;12.598;2023-05-10T02:36:37;6.40;;;3.25;;
64653;SDS011;51065;48.884;12.598;2023-05-10T02:39:04;7.97;;;3.85;;
64653;SDS011;51065;48.884;12.598;2023-05-10T02:41:35;7.05;;;3.40;;
64653;SDS011;51065;48.884;12.598;2023-05-10T02:44:01;8.23;;;3.58;;
64653;SDS011;51065;48.884;12.598;2023-05-10T02:46:28;9.50;;;3.72;;
64653;SDS011;51065;48.884;12.598;2023-05-10T02:48:54;7.90;;;3.50;;
64653;SDS011;51065;48.884;12.598;2023-05-10T02:51:20;8.00;;;3.58;;
64653;SDS011;51065;48.884;12.598;2023-05-10T02:53:49;8.23;;;3.53;;
64653;SDS011;51065;48.884;12.598;2023-05-10T02:56:20;9.25;;;3.83;;
64653;SDS011;51065;48.884;12.598;2023-05-10T02:58:54;10.90;;;3.85;;
64653;SDS011;51065;48.884;12.598;2023-05-10T03:01:20;7.32;;;3.30;;
64653;SDS011;51065;48.884;12.598;2023-05-10T03:03:46;7.53;;;3.58;;
64653;SDS011;51065;48.884;12.598;2023-05-10T03:06:11;10.07;;;4.18;;
64653;SDS011;51065;48.884;12.598;2023-05-10T03:08:37;7.38;;;3.40;;
64653;SDS011;51065;48.884;12.598;2023-05-10T03:11:13;13.63;;;4.07;;
64653;SDS011;51065;48.884;12.598;2023-05-10T03:14:20;6.57;;;3.28;;
64653;SDS011;51065;48.884;12.598;2023-05-10T03:16:50;8.65;;;3.85;;
64653;SDS011;51065;48.884;12.598;2023-05-10T03:19:37;8.00;;;3.45;;
64653;SDS011;51065;48.884;12.598;2023-05-10T03:22:10;8.93;;;3.45;;
64653;SDS011;51065;48.884;12.598;2023-05-10T03:24:39;7.05;;;3.20;;
64653;SDS011;51065;48.884;12.598;2023-05-10T03:27:07;8.63;;;3.90;;
64653;SDS011;51065;48.884;12.598;2023-05-10T03:29:33;8.82;;;3.90;;
64653;SDS011;51065;48.884;12.598;2023-05-10T03:31:59;10.82;;;4.20;;
64653;SDS011;51065;48.884;12.598;2023-05-10T03:34:25;9.35;;;3.95;;
64653;SDS011;51065;48.884;12.598;2023-05-10T03:36:51;9.32;;;3.75;;
64653;SDS011;51065;48.884;12.598;2023-05-10T03:39:17;10.25;;;4.28;;
64653;SDS011;51065;48.884;12.598;2023-05-10T03:41:43;9.07;;;4.13;;
64653;SDS011;51065;48.884;12.598;2023-05-10T03:44:08;8.93;;;4.20;;
64653;SDS011;51065;48.884;12.598;2023-05-10T03:46:34;11.15;;;4.60;;
64653;SDS011;51065;48.884;12.598;2023-05-10T03:48:59;11.85;;;4.43;;
64653;SDS011;51065;48.884;12.598;2023-05-10T03:51:25;9.93;;;4.18;;
64653;SDS011;51065;48.884;12.598;2023-05-10T03:53:53;9.63;;;4.47;;
64653;SDS011;51065;48.884;12.598;2023-05-10T03:56:21;10.43;;;4.13;;
64653;SDS011;51065;48.884;12.598;2023-05-10T03:58:47;11.88;;;4.82;;
64653;SDS011;51065;48.884;12.598;2023-05-10T04:01:12;12.18;;;5.45;;
64653;SDS011;51065;48.884;12.598;2023-05-10T04:03:38;13.65;;;4.93;;
64653;SDS011;51065;48.884;12.598;2023-05-10T04:06:04;11.00;;;4.88;;
64653;SDS011;51065;48.884;12.598;2023-05-10T04:08:30;13.38;;;4.90;;
64653;SDS011;51065;48.884;12.598;2023-05-10T04:11:08;12.00;;;5.20;;
64653;SDS011;51065;48.884;12.598;2023-05-10T04:13:35;14.57;;;5.55;;
64653;SDS011;51065;48.884;12.598;2023-05-10T04:16:01;11.90;;;4.80;;
64653;SDS011;51065;48.884;12.598;2023-05-10T04:18:26;12.50;;;5.15;;
64653;SDS011;51065;48.884;12.598;2023-05-10T04:20:52;12.32;;;5.25;;
64653;SDS011;51065;48.884;12.598;2023-05-10T04:23:18;14.50;;;5.43;;
64653;SDS011;51065;48.884;12.598;2023-05-10T04:25:43;15.00;;;6.05;;
64653;SDS011;51065;48.884;12.598;2023-05-10T04:28:09;12.18;;;5.32;;
64653;SDS011;51065;48.884;12.598;2023-05-10T04:30:34;11.90;;;5.10;;
64653;SDS011;51065;48.884;12.598;2023-05-10T04:33:00;12.90;;;5.72;;
64653;SDS011;51065;48.884;12.598;2023-05-10T04:35:26;12.35;;;5.32;;
64653;SDS011;51065;48.884;12.598;2023-05-10T04:37:53;14.45;;;6.05;;
64653;SDS011;51065;48.884;12.598;2023-05-10T04:40:18;12.95;;;5.97;;
64653;SDS011;51065;48.884;12.598;2023-05-10T04:42:45;15.40;;;5.70;;
64653;SDS011;51065;48.884;12.598;2023-05-10T04:45:10;12.35;;;5.65;;
64653;SDS011;51065;48.884;12.598;2023-05-10T04:47:36;12.32;;;5.13;;
64653;SDS011;51065;48.884;12.598;2023-05-10T04:50:02;13.40;;;5.75;;
64653;SDS011;51065;48.884;12.598;2023-05-10T04:52:31;13.93;;;5.93;;
64653;SDS011;51065;48.884;12.598;2023-05-10T04:54:57;13.43;;;6.05;;
64653;SDS011;51065;48.884;12.598;2023-05-10T04:57:22;12.93;;;5.45;;
64653;SDS011;51065;48.884;12.598;2023-05-10T04:59:48;13.38;;;5.70;;
64653;SDS011;51065;48.884;12.598;2023-05-10T05:02:13;11.10;;;5.55;;
64653;SDS011;51065;48.884;12.598;2023-05-10T05:04:39;15.63;;;5.90;;
64653;SDS011;51065;48.884;12.598;2023-05-10T05:07:04;12.65;;;5.72;;
64653;SDS011;51065;48.884;12.598;2023-05-10T05:09:30;14.35;;;5.68;;
64653;SDS011;51065;48.884;12.598;2023-05-10T05:11:57;13.50;;;6.22;;
64653;SDS011;51065;48.884;12.598;2023-05-10T05:14:22;13.40;;;5.75;;
64653;SDS011;51065;48.884;12.598;2023-05-10T05:16:50;13.32;;;5.70;;
64653;SDS011;51065;48.884;12.598;2023-05-10T05:19:16;14.02;;;6.53;;
64653;SDS011;51065;48.884;12.598;2023-05-10T05:21:41;14.60;;;6.70;;
64653;SDS011;51065;48.884;12.598;2023-05-10T05:24:07;15.07;;;6.75;;
64653;SDS011;51065;48.884;12.598;2023-05-10T05:26:33;13.50;;;6.13;;
64653;SDS011;51065;48.884;12.598;2023-05-10T05:28:59;17.27;;;6.10;;
64653;SDS011;51065;48.884;12.598;2023-05-10T05:31:24;15.18;;;6.40;;
64653;SDS011;51065;48.884;12.598;2023-05-10T05:33:55;15.77;;;6.38;;
64653;SDS011;51065;48.884;12.598;2023-05-10T05:36:27;13.23;;;5.90;;
64653;SDS011;51065;48.884;12.598;2023-05-10T05:38:53;13.35;;;6.22;;
64653;SDS011;51065;48.884;12.598;2023-05-10T05:41:18;13.13;;;5.85;;
64653;SDS011;51065;48.884;12.598;2023-05-10T05:43:44;16.10;;;6.20;;
64653;SDS011;51065;48.884;12.598;2023-05-10T05:46:10;14.00;;;5.85;;
64653;SDS011;51065;48.884;12.598;2023-05-10T05:48:35;14.25;;;5.97;;
64653;SDS011;51065;48.884;12.598;2023-05-10T05:51:01;12.25;;;5.80;;
64653;SDS011;51065;48.884;12.598;2023-05-10T05:53:27;13.10;;;5.85;;
64653;SDS011;51065;48.884;12.598;2023-05-10T05:55:56;13.10;;;5.78;;
64653;SDS011;51065;48.884;12.598;2023-05-10T05:58:23;14.15;;;5.57;;
64653;SDS011;51065;48.884;12.598;2023-05-10T06:00:52;15.77;;;6.63;;
64653;SDS011;51065;48.884;12.598;2023-05-10T06:03:18;14.90;;;5.85;;
64653;SDS011;51065;48.884;12.598;2023-05-10T06:05:44;14.98;;;6.53;;
64653;SDS011;51065;48.884;12.598;2023-05-10T06:08:09;14.02;;;6.30;;
64653;SDS011;51065;48.884;12.598;2023-05-10T06:10:35;14.30;;;5.38;;
64653;SDS011;51065;48.884;12.598;2023-05-10T06:13:01;15.38;;;6.82;;
64653;SDS011;51065;48.884;12.598;2023-05-10T06:15:27;14.65;;;7.22;;
64653;SDS011;51065;48.884;12.598;2023-05-10T06:17:52;14.07;;;6.63;;
64653;SDS011;51065;48.884;12.598;2023-05-10T06:20:18;13.07;;;6.15;;
64653;SDS011;51065;48.884;12.598;2023-05-10T06:22:43;15.50;;;6.38;;
64653;SDS011;51065;48.884;12.598;2023-05-10T06:25:09;13.57;;;6.20;;
64653;SDS011;51065;48.884;12.598;2023-05-10T06:27:35;14.68;;;5.85;;
64653;SDS011;51065;48.884;12.598;2023-05-10T06:30:01;15.10;;;6.32;;
64653;SDS011;51065;48.884;12.598;2023-05-10T06:32:27;12.73;;;5.70;;
64653;SDS011;51065;48.884;12.598;2023-05-10T06:34:53;15.00;;;6.28;;
64653;SDS011;51065;48.884;12.598;2023-05-10T06:37:18;13.63;;;6.28;;
64653;SDS011;51065;48.884;12.598;2023-05-10T06:39:44;12.18;;;5.57;;
64653;SDS011;51065;48.884;12.598;2023-05-10T06:42:09;13.05;;;5.38;;
64653;SDS011;51065;48.884;12.598;2023-05-10T06:44:35;13.45;;;5.70;;
64653;SDS011;51065;48.884;12.598;2023-05-10T06:47:01;12.57;;;5.70;;
64653;SDS011;51065;48.884;12.598;2023-05-10T06:49:26;14.57;;;6.20;;
64653;SDS011;51065;48.884;12.598;2023-05-10T06:51:52;15.60;;;6.90;;
64653;SDS011;51065;48.884;12.598;2023-05-10T06:54:17;15.32;;;6.15;;
64653;SDS011;51065;48.884;12.598;2023-05-10T06:56:43;13.90;;;6.35;;
64653;SDS011;51065;48.884;12.598;2023-05-10T06:59:09;16.05;;;6.10;;
64653;SDS011;51065;48.884;12.598;2023-05-10T07:01:35;16.15;;;6.78;;
64653;SDS011;51065;48.884;12.598;2023-05-10T07:04:00;15.20;;;7.40;;
64653;SDS011;51065;48.884;12.598;2023-05-10T07:06:26;14.15;;;6.55;;
64653;SDS011;51065;48.884;12.598;2023-05-10T07:08:52;15.02;;;6.13;;
64653;SDS011;51065;48.884;12.598;2023-05-10T07:11:17;16.75;;;7.00;;
64653;SDS011;51065;48.884;12.598;2023-05-10T07:13:43;15.45;;;6.30;;
64653;SDS011;51065;48.884;12.598;2023-05-10T07:16:11;15.07;;;6.97;;
64653;SDS011;51065;48.884;12.598;2023-05-10T07:18:37;12.27;;;5.57;;
64653;SDS011;51065;48.884;12.598;2023-05-10T07:21:02;13.40;;;6.00;;
64653;SDS011;51065;48.884;12.598;2023-05-10T07:23:28;12.90;;;5.82;;
64653;SDS011;51065;48.884;12.598;2023-05-10T07:25:54;18.15;;;8.68;;
64653;SDS011;51065;48.884;12.598;2023-05-10T07:28:22;13.82;;;5.90;;
64653;SDS011;51065;48.884;12.598;2023-05-10T07:30:48;13.32;;;5.63;;
64653;SDS011;51065;48.884;12.598;2023-05-10T07:33:13;18.95;;;8.82;;
64653;SDS011;51065;48.884;12.598;2023-05-10T07:35:39;14.23;;;6.50;;
64653;SDS011;51065;48.884;12.598;2023-05-10T07:38:05;13.77;;;6.57;;
64653;SDS011;51065;48.884;12.598;2023-05-10T07:40:31;12.85;;;5.60;;
64653;SDS011;51065;48.884;12.598;2023-05-10T07:42:56;14.15;;;5.88;;
64653;SDS011;51065;48.884;12.598;2023-05-10T07:45:22;14.57;;;6.28;;
64653;SDS011;51065;48.884;12.598;2023-05-10T07:47:48;15.40;;;5.80;;
64653;SDS011;51065;48.884;12.598;2023-05-10T07:50:14;13.88;;;5.78;;
64653;SDS011;51065;48.884;12.598;2023-05-10T07:52:40;11.70;;;6.10;;
64653;SDS011;51065;48.884;12.598;2023-05-10T07:55:06;14.85;;;6.05;;
64653;SDS011;51065;48.884;12.598;2023-05-10T07:57:33;15.35;;;6.22;;
64653;SDS011;51065;48.884;12.598;2023-05-10T07:59:59;12.43;;;5.25;;
64653;SDS011;51065;48.884;12.598;2023-05-10T08:02:25;12.77;;;5.70;;
64653;SDS011;51065;48.884;12.598;2023-05-10T08:04:50;14.20;;;6.30;;
64653;SDS011;51065;48.884;12.598;2023-05-10T08:07:16;14.20;;;6.60;;
64653;SDS011;51065;48.884;12.598;2023-05-10T08:09:42;11.98;;;5.60;;
64653;SDS011;51065;48.884;12.598;2023-05-10T08:12:07;15.82;;;5.97;;
64653;SDS011;51065;48.884;12.598;2023-05-10T08:14:33;13.10;;;6.00;;
64653;SDS011;51065;48.884;12.598;2023-05-10T08:16:59;13.23;;;5.88;;
64653;SDS011;51065;48.884;12.598;2023-05-10T08:19:24;13.10;;;6.50;;
64653;SDS011;51065;48.884;12.598;2023-05-10T08:21:50;14.07;;;6.57;;
64653;SDS011;51065;48.884;12.598;2023-05-10T08:24:16;12.93;;;6.10;;
64653;SDS011;51065;48.884;12.598;2023-05-10T08:26:41;10.15;;;5.20;;
64653;SDS011;51065;48.884;12.598;2023-05-10T08:29:07;13.02;;;5.70;;
64653;SDS011;51065;48.884;12.598;2023-05-10T08:31:32;14.23;;;6.65;;
64653;SDS011;51065;48.884;12.598;2023-05-10T08:33:58;13.02;;;5.78;;
64653;SDS011;51065;48.884;12.598;2023-05-10T08:36:23;13.63;;;6.13;;
64653;SDS011;51065;48.884;12.598;2023-05-10T08:38:52;12.02;;;5.72;;
64653;SDS011;51065;48.884;12.598;2023-05-10T08:41:22;15.40;;;6.10;;
64653;SDS011;51065;48.884;12.598;2023-05-10T08:43:54;14.50;;;6.18;;
64653;SDS011;51065;48.884;12.598;2023-05-10T08:46:20;11.60;;;5.28;;
64653;SDS011;51065;48.884;12.598;2023-05-10T08:48:47;12.60;;;5.95;;
64653;SDS011;51065;48.884;12.598;2023-05-10T08:51:15;12.23;;;6.13;;
64653;SDS011;51065;48.884;12.598;2023-05-10T08:53:43;13.38;;;6.13;;
64653;SDS011;51065;48.884;12.598;2023-05-10T08:56:09;13.02;;;6.30;;
64653;SDS011;51065;48.884;12.598;2023-05-10T08:58:35;13.73;;;6.18;;
64653;SDS011;51065;48.884;12.598;2023-05-10T09:01:02;12.32;;;5.70;;
64653;SDS011;51065;48.884;12.598;2023-05-10T09:03:28;13.80;;;6.13;;
64653;SDS011;51065;48.884;12.598;2023-05-10T09:05:55;12.27;;;6.35;;
64653;SDS011;51065;48.884;12.598;2023-05-10T09:08:21;12.50;;;6.07;;
64653;SDS011;51065;48.884;12.598;2023-05-10T09:10:51;12.50;;;5.95;;
64653;SDS011;51065;48.884;12.598;2023-05-10T09:13:18;14.13;;;6.28;;
64653;SDS011;51065;48.884;12.598;2023-05-10T09:15:45;14.10;;;6.30;;
64653;SDS011;51065;48.884;12.598;2023-05-10T09:18:11;11.10;;;6.07;;
64653;SDS011;51065;48.884;12.598;2023-05-10T09:20:36;13.30;;;5.72;;
64653;SDS011;51065;48.884;12.598;2023-05-10T09:23:02;11.95;;;6.05;;
64653;SDS011;51065;48.884;12.598;2023-05-10T09:25:28;13.32;;;5.78;;
64653;SDS011;51065;48.884;12.598;2023-05-10T09:27:53;12.93;;;5.82;;
64653;SDS011;51065;48.884;12.598;2023-05-10T09:30:24;12.95;;;5.80;;
64653;SDS011;51065;48.884;12.598;2023-05-10T09:32:51;10.80;;;4.57;;
64653;SDS011;51065;48.884;12.598;2023-05-10T09:35:19;8.88;;;3.85;;
64653;SDS011;51065;48.884;12.598;2023-05-10T09:37:46;8.43;;;3.60;;
64653;SDS011;51065;48.884;12.598;2023-05-10T09:40:14;7.72;;;3.97;;
64653;SDS011;51065;48.884;12.598;2023-05-10T09:42:55;6.15;;;3.30;;
64653;SDS011;51065;48.884;12.598;2023-05-10T09:45:28;9.88;;;4.00;;
64653;SDS011;51065;48.884;12.598;2023-05-10T09:47:55;9.00;;;3.65;;
64653;SDS011;51065;48.884;12.598;2023-05-10T09:50:21;9.15;;;4.30;;
64653;SDS011;51065;48.884;12.598;2023-05-10T09:52:51;7.93;;;3.60;;
64653;SDS011;51065;48.884;12.598;2023-05-10T09:55:25;8.55;;;4.07;;
64653;SDS011;51065;48.884;12.598;2023-05-10T09:58:03;6.63;;;3.45;;
64653;SDS011;51065;48.884;12.598;2023-05-10T10:00:34;9.27;;;4.05;;
64653;SDS011;51065;48.884;12.598;2023-05-10T10:03:11;10.57;;;3.90;;
64653;SDS011;51065;48.884;12.598;2023-05-10T10:05:42;8.15;;;3.65;;
64653;SDS011;51065;48.884;12.598;2023-05-10T10:08:09;8.75;;;3.97;;
64653;SDS011;51065;48.884;12.598;2023-05-10T10:10:35;7.88;;;4.20;;
64653;SDS011;51065;48.884;12.598;2023-05-10T10:13:01;8.27;;;3.90;;
64653;SDS011;51065;48.884;12.598;2023-05-10T10:15:27;6.75;;;3.65;;
64653;SDS011;51065;48.884;12.598;2023-05-10T10:17:53;7.68;;;3.67;;
64653;SDS011;51065;48.884;12.598;2023-05-10T10:20:20;5.03;;;2.90;;
64653;SDS011;51065;48.884;12.598;2023-05-10T10:22:47;6.45;;;3.55;;
64653;SDS011;51065;48.884;12.598;2023-05-10T10:25:14;7.18;;;3.42;;
64653;SDS011;51065;48.884;12.598;2023-05-10T10:30:37;8.18;;;3.85;;
64653;SDS011;51065;48.884;12.598;2023-05-10T10:35:52;7.13;;;3.47;;
64653;SDS011;51065;48.884;12.598;2023-05-10T10:38:19;8.48;;;3.80;;
64653;SDS011;51065;48.884;12.598;2023-05-10T10:40:45;9.80;;;3.50;;
64653;SDS011;51065;48.884;12.598;2023-05-10T10:43:24;8.73;;;3.70;;
64653;SDS011;51065;48.884;12.598;2023-05-10T10:48:48;7.07;;;3.42;;
64653;SDS011;51065;48.884;12.598;2023-05-10T10:51:32;6.82;;;3.42;;
64653;SDS011;51065;48.884;12.598;2023-05-10T10:54:11;6.00;;;3.15;;
64653;SDS011;51065;48.884;12.598;2023-05-10T10:56:37;7.68;;;3.75;;
64653;SDS011;51065;48.884;12.598;2023-05-10T10:59:02;8.20;;;3.83;;
64653;SDS011;51065;48.884;12.598;2023-05-10T11:01:32;6.03;;;3.25;;
64653;SDS011;51065;48.884;12.598;2023-05-10T11:06:29;6.15;;;3.45;;
64653;SDS011;51065;48.884;12.598;2023-05-10T11:08:58;7.00;;;3.17;;
64653;SDS011;51065;48.884;12.598;2023-05-10T11:11:31;6.65;;;3.40;;
64653;SDS011;51065;48.884;12.598;2023-05-10T11:14:02;5.80;;;2.97;;
64653;SDS011;51065;48.884;12.598;2023-05-10T11:16:41;6.65;;;3.03;;
64653;SDS011;51065;48.884;12.598;2023-05-10T11:19:10;6.47;;;3.17;;
64653;SDS011;51065;48.884;12.598;2023-05-10T11:21:46;6.45;;;3.38;;
64653;SDS011;51065;48.884;12.598;2023-05-10T11:24:13;7.00;;;3.85;;
64653;SDS011;51065;48.884;12.598;2023-05-10T11:26:40;9.90;;;3.88;;
64653;SDS011;51065;48.884;12.598;2023-05-10T11:29:05;5.32;;;2.90;;
64653;SDS011;51065;48.884;12.598;2023-05-10T11:31:32;5.78;;;3.05;;
64653;SDS011;51065;48.884;12.598;2023-05-10T11:33:58;6.47;;;3.55;;
64653;SDS011;51065;48.884;12.598;2023-05-10T11:36:27;4.97;;;3.10;;
64653;SDS011;51065;48.884;12.598;2023-05-10T11:38:54;5.78;;;2.60;;
64653;SDS011;51065;48.884;12.598;2023-05-10T11:41:22;4.60;;;2.90;;
64653;SDS011;51065;48.884;12.598;2023-05-10T11:43:49;4.65;;;2.45;;
64653;SDS011;51065;48.884;12.598;2023-05-10T11:46:17;4.78;;;2.70;;
64653;SDS011;51065;48.884;12.598;2023-05-10T11:48:45;6.72;;;3.45;;
64653;SDS011;51065;48.884;12.598;2023-05-10T11:51:11;13.43;;;7.50;;
64653;SDS011;51065;48.884;12.598;2023-05-10T11:53:37;5.03;;;2.72;;
64653;SDS011;51065;48.884;12.598;2023-05-10T11:56:06;14.27;;;6.82;;
64653;SDS011;51065;48.884;12.598;2023-05-10T11:58:32;9.75;;;4.47;;
64653;SDS011;51065;48.884;12.598;2023-05-10T12:00:59;10.27;;;5.00;;
64653;SDS011;51065;48.884;12.598;2023-05-10T12:03:25;5.22;;;2.65;;
64653;SDS011;51065;48.884;12.598;2023-05-10T12:05:51;9.75;;;5.35;;
64653;SDS011;51065;48.884;12.598;2023-05-10T12:08:20;6.32;;;2.60;;
64653;SDS011;51065;48.884;12.598;2023-05-10T12:10:47;3.83;;;2.50;;
64653;SDS011;51065;48.884;12.598;2023-05-10T12:13:13;10.65;;;4.30;;
64653;SDS011;51065;48.884;12.598;2023-05-10T12:15:40;4.72;;;2.60;;
64653;SDS011;51065;48.884;12.598;2023-05-10T12:18:07;4.35;;;2.47;;
64653;SDS011;51065;48.884;12.598;2023-05-10T12:20:35;5.90;;;3.10;;
64653;SDS011;51065;48.884;12.598;2023-05-10T12:23:01;4.28;;;2.22;;
64653;SDS011;51065;48.884;12.598;2023-05-10T12:25:32;3.03;;;2.10;;
64653;SDS011;51065;48.884;12.598;2023-05-10T12:27:59;4.88;;;2.72;;
64653;SDS011;51065;48.884;12.598;2023-05-10T12:30:28;6.95;;;3.50;;
64653;SDS011;51065;48.884;12.598;2023-05-10T12:32:58;5.63;;;2.53;;
64653;SDS011;51065;48.884;12.598;2023-05-10T12:35:25;3.85;;;2.35;;
64653;SDS011;51065;48.884;12.598;2023-05-10T12:37:51;5.13;;;2.85;;
64653;SDS011;51065;48.884;12.598;2023-05-10T12:40:16;2.80;;;2.13;;
64653;SDS011;51065;48.884;12.598;2023-05-10T12:42:42;5.00;;;2.47;;
64653;SDS011;51065;48.884;12.598;2023-05-10T12:45:11;4.63;;;2.72;;
64653;SDS011;51065;48.884;12.598;2023-05-10T12:47:37;4.07;;;2.42;;
64653;SDS011;51065;48.884;12.598;2023-05-10T12:50:03;3.97;;;2.55;;
64653;SDS011;51065;48.884;12.598;2023-05-10T12:52:29;3.55;;;1.80;;
64653;SDS011;51065;48.884;12.598;2023-05-10T12:54:56;3.03;;;1.75;;
64653;SDS011;51065;48.884;12.598;2023-05-10T12:57:23;2.25;;;1.50;;
64653;SDS011;51065;48.884;12.598;2023-05-10T12:59:48;3.80;;;1.50;;
64653;SDS011;51065;48.884;12.598;2023-05-10T13:02:14;4.95;;;1.88;;
64653;SDS011;51065;48.884;12.598;2023-05-10T13:04:42;3.03;;;1.60;;
64653;SDS011;51065;48.884;12.598;2023-05-10T13:07:08;5.63;;;2.05;;
64653;SDS011;51065;48.884;12.598;2023-05-10T13:09:34;3.65;;;2.08;;
64653;SDS011;51065;48.884;12.598;2023-05-10T13:12:00;2.45;;;1.83;;
64653;SDS011;51065;48.884;12.598;2023-05-10T13:14:26;4.43;;;1.67;;
64653;SDS011;51065;48.884;12.598;2023-05-10T13:16:52;3.03;;;1.90;;
64653;SDS011;51065;48.884;12.598;2023-05-10T13:19:18;2.58;;;1.70;;
64653;SDS011;51065;48.884;12.598;2023-05-10T13:21:44;2.35;;;1.60;;
64653;SDS011;51065;48.884;12.598;2023-05-10T13:24:10;3.15;;;1.45;;
64653;SDS011;51065;48.884;12.598;2023-05-10T13:26:38;3.08;;;1.45;;
64653;SDS011;51065;48.884;12.598;2023-05-10T13:29:05;2.75;;;1.70;;
64653;SDS011;51065;48.884;12.598;2023-05-10T13:31:30;3.20;;;1.80;;
64653;SDS011;51065;48.884;12.598;2023-05-10T13:33:56;5.78;;;1.70;;
64653;SDS011;51065;48.884;12.598;2023-05-10T13:36:21;3.72;;;1.75;;
64653;SDS011;51065;48.884;12.598;2023-05-10T13:38:47;3.47;;;1.80;;
64653;SDS011;51065;48.884;12.598;2023-05-10T13:41:13;3.17;;;1.85;;
64653;SDS011;51065;48.884;12.598;2023-05-10T13:43:39;6.70;;;1.88;;
64653;SDS011;51065;48.884;12.598;2023-05-10T13:46:04;3.70;;;1.70;;
64653;SDS011;51065;48.884;12.598;2023-05-10T13:48:31;2.38;;;1.60;;
64653;SDS011;51065;48.884;12.598;2023-05-10T13:50:57;3.08;;;1.70;;
64653;SDS011;51065;48.884;12.598;2023-05-10T13:53:22;4.22;;;1.98;;
64653;SDS011;51065;48.884;12.598;2023-05-10T13:55:48;4.45;;;1.77;;
64653;SDS011;51065;48.884;12.598;2023-05-10T13:58:14;5.20;;;2.08;;
64653;SDS011;51065;48.884;12.598;2023-05-10T14:00:39;2.50;;;1.67;;
64653;SDS011;51065;48.884;12.598;2023-05-10T14:03:05;2.17;;;1.52;;
64653;SDS011;51065;48.884;12.598;2023-05-10T14:05:31;2.72;;;1.30;;
64653;SDS011;51065;48.884;12.598;2023-05-10T14:07:57;2.20;;;1.70;;
64653;SDS011;51065;48.884;12.598;2023-05-10T14:10:23;4.78;;;1.55;;
64653;SDS011;51065;48.884;12.598;2023-05-10T14:12:49;5.38;;;2.00;;
64653;SDS011;51065;48.884;12.598;2023-05-10T14:15:15;2.88;;;1.58;;
64653;SDS011;51065;48.884;12.598;2023-05-10T14:17:40;3.75;;;1.65;;
64653;SDS011;51065;48.884;12.598;2023-05-10T14:20:06;3.22;;;1.55;;
64653;SDS011;51065;48.884;12.598;2023-05-10T14:22:33;2.28;;;1.50;;
64653;SDS011;51065;48.884;12.598;2023-05-10T14:24:59;2.72;;;1.65;;
64653;SDS011;51065;48.884;12.598;2023-05-10T14:27:25;2.95;;;1.50;;
64653;SDS011;51065;48.884;12.598;2023-05-10T14:29:50;3.33;;;1.60;;
64653;SDS011;51065;48.884;12.598;2023-05-10T14:32:16;4.93;;;1.80;;
64653;SDS011;51065;48.884;12.598;2023-05-10T14:34:42;2.28;;;1.50;;
64653;SDS011;51065;48.884;12.598;2023-05-10T14:37:09;3.72;;;2.25;;
64653;SDS011;51065;48.884;12.598;2023-05-10T14:39:35;4.75;;;1.83;;
64653;SDS011;51065;48.884;12.598;2023-05-10T14:42:04;2.22;;;1.17;;
64653;SDS011;51065;48.884;12.598;2023-05-10T14:44:29;2.97;;;1.30;;
64653;SDS011;51065;48.884;12.598;2023-05-10T14:46:55;1.92;;;1.10;;
64653;SDS011;51065;48.884;12.598;2023-05-10T14:55:33;4.53;;;1.70;;